Time;durP1;ratioP1;P1;durP2;ratioP2;P2;SDS_P1;SDS_P2;PMS_P1;PMS_P2;Temp;Humidity;BMP_temperature;BMP_pressure;BME280_temperature;BME280_humidity;BME280_pressure;Samples;Min_cycle;Max_cycle;Signal;HPM_P1;HPM_P2
2023/07/29 00:01:23;;;;;;;5.40;2.60;;;;;;;22.39;44.54;100111.70;108439;1282;21993;-68
2023/07/29 00:03:48;;;;;;;7.60;3.00;;;;;;;22.42;44.66;100108.30;108453;1281;21991;-67
2023/07/29 00:06:14;;;;;;;4.30;2.80;;;;;;;22.45;44.70;100108.52;108450;1277;21984;-68
2023/07/29 00:08:39;;;;;;;5.40;2.90;;;;;;;22.46;44.81;100107.38;108487;1281;22104;-60
2023/07/29 00:11:05;;;;;;;5.20;2.60;;;;;;;22.49;44.79;100112.19;108449;1280;21985;-68
2023/07/29 00:13:31;;;;;;;4.90;2.70;;;;;;;22.48;44.86;100107.95;108477;1282;21987;-60
2023/07/29 00:15:56;;;;;;;5.50;2.60;;;;;;;22.48;45.13;100101.33;108467;1277;21988;-68
2023/07/29 00:18:23;;;;;;;6.50;2.90;;;;;;;22.47;45.35;100094.77;108529;1277;21980;-60
2023/07/29 00:20:50;;;;;;;5.30;2.80;;;;;;;22.46;45.24;100091.64;108514;1280;22021;-60
2023/07/29 00:23:18;;;;;;;6.60;2.70;;;;;;;22.46;45.22;100089.86;108550;1281;21980;-60
2023/07/29 00:25:44;;;;;;;5.00;2.80;;;;;;;22.47;45.32;100089.94;108525;1281;21983;-61
2023/07/29 00:28:11;;;;;;;5.80;3.10;;;;;;;22.48;45.51;100084.89;108599;1277;21980;-68
2023/07/29 00:30:37;;;;;;;5.70;2.90;;;;;;;22.48;45.56;100083.46;108497;1281;21984;-60
2023/07/29 00:33:02;;;;;;;5.20;2.80;;;;;;;22.47;45.44;100082.45;108478;1276;21984;-60
2023/07/29 00:35:28;;;;;;;5.50;2.80;;;;;;;22.47;45.41;100082.60;108434;1277;21983;-68
2023/07/29 00:37:54;;;;;;;4.40;3.00;;;;;;;22.47;45.32;100076.73;108503;1277;21992;-68
2023/07/29 00:40:20;;;;;;;5.30;2.80;;;;;;;22.46;45.48;100069.83;108296;1279;21993;-68
2023/07/29 00:42:46;;;;;;;5.50;2.80;;;;;;;22.45;45.53;100071.34;108351;1276;22021;-60
2023/07/29 00:45:12;;;;;;;9.00;3.30;;;;;;;22.42;45.50;100067.02;108423;1273;21981;-69
2023/07/29 00:47:38;;;;;;;6.00;2.40;;;;;;;22.39;45.58;100070.82;108415;1281;21988;-60
2023/07/29 00:50:04;;;;;;;3.80;2.40;;;;;;;22.36;45.62;100067.80;108482;1276;21996;-61
2023/07/29 00:52:30;;;;;;;5.70;2.50;;;;;;;22.34;45.56;100066.66;108468;1273;21983;-69
2023/07/29 00:54:55;;;;;;;4.90;3.10;;;;;;;22.35;45.51;100062.86;108228;1277;21992;-60
2023/07/29 00:57:21;;;;;;;4.20;2.30;;;;;;;22.36;45.58;100063.83;108431;1280;21993;-60
2023/07/29 00:59:46;;;;;;;4.40;2.40;;;;;;;22.35;45.60;100066.80;108456;1277;21979;-60
2023/07/29 01:02:12;;;;;;;4.90;2.70;;;;;;;22.32;45.58;100067.88;108210;1281;21980;-61
2023/07/29 01:04:37;;;;;;;4.70;2.90;;;;;;;22.27;45.55;100067.27;108443;1274;21980;-60
2023/07/29 01:07:12;;;;;;;4.80;2.80;;;;;;;22.24;45.56;100066.94;108505;1277;22136;-60
2023/07/29 01:09:53;;;;;;;4.60;2.30;;;;;;;22.23;45.60;100067.76;108448;1276;21992;-67
2023/07/29 01:12:28;;;;;;;4.80;2.70;;;;;;;22.19;45.77;100068.34;108377;1280;21992;-69
2023/07/29 01:14:54;;;;;;;9.60;2.40;;;;;;;22.17;45.79;100066.19;108503;1280;21979;-60
2023/07/29 01:17:23;;;;;;;5.00;3.00;;;;;;;22.16;45.87;100069.84;108492;1276;21983;-61
2023/07/29 01:20:08;;;;;;;3.80;2.60;;;;;;;22.12;45.81;100072.59;108502;1276;22234;-69
2023/07/29 01:22:37;;;;;;;5.30;2.80;;;;;;;22.09;45.90;100073.32;108491;1280;22079;-61
2023/07/29 01:25:03;;;;;;;3.70;2.30;;;;;;;22.06;45.89;100074.00;108459;1274;22018;-68
2023/07/29 01:27:29;;;;;;;4.90;2.50;;;;;;;22.03;45.97;100074.41;108473;1281;21980;-69
2023/07/29 01:29:55;;;;;;;6.00;2.80;;;;;;;22.01;46.01;100073.45;108476;1282;21987;-61
2023/07/29 01:32:36;;;;;;;5.40;2.40;;;;;;;22.02;46.09;100069.82;108540;1277;21993;-69
2023/07/29 01:35:08;;;;;;;4.60;2.60;;;;;;;22.05;45.99;100071.38;108457;1276;22009;-60
2023/07/29 01:37:34;;;;;;;4.00;2.50;;;;;;;22.09;45.98;100072.40;108444;1277;21981;-61
2023/07/29 01:40:00;;;;;;;6.50;2.70;;;;;;;22.10;45.99;100074.11;108435;1282;22007;-68
2023/07/29 01:42:26;;;;;;;5.80;2.50;;;;;;;22.09;46.13;100076.16;108448;1282;21994;-68
2023/07/29 01:44:52;;;;;;;4.40;2.50;;;;;;;22.10;46.15;100078.20;108253;1282;22024;-60
2023/07/29 01:47:18;;;;;;;5.90;2.40;;;;;;;22.12;46.33;100080.05;108487;1276;21981;-67
2023/07/29 01:49:43;;;;;;;4.20;2.60;;;;;;;22.13;46.55;100082.69;108494;1281;22025;-68
2023/07/29 01:52:09;;;;;;;3.80;2.30;;;;;;;22.10;46.69;100079.80;108514;1276;21985;-61
2023/07/29 01:54:34;;;;;;;4.00;2.40;;;;;;;22.11;46.72;100081.52;108303;1281;21991;-68
2023/07/29 01:57:00;;;;;;;6.20;2.50;;;;;;;22.11;46.74;100078.54;108438;1281;21989;-69
2023/07/29 01:59:26;;;;;;;4.50;2.60;;;;;;;22.10;46.87;100076.77;108436;1280;21992;-60
2023/07/29 02:01:51;;;;;;;4.90;2.60;;;;;;;22.11;47.00;100071.93;108518;1277;21983;-60
2023/07/29 02:04:17;;;;;;;4.50;2.60;;;;;;;22.13;47.02;100068.36;108470;1277;21977;-68
2023/07/29 02:06:42;;;;;;;4.70;2.70;;;;;;;22.17;47.13;100069.21;108478;1277;21987;-60
2023/07/29 02:09:08;;;;;;;6.00;2.70;;;;;;;22.21;47.30;100073.41;108479;1277;21980;-60
2023/07/29 02:11:33;;;;;;;5.30;3.50;;;;;;;22.24;47.25;100075.15;108438;1281;21986;-60
2023/07/29 02:13:59;;;;;;;6.60;2.90;;;;;;;22.27;47.49;100071.76;108541;1282;22450;-61
2023/07/29 02:16:24;;;;;;;6.50;3.20;;;;;;;22.29;47.56;100072.89;108519;1275;21986;-60
2023/07/29 02:18:50;;;;;;;8.20;3.30;;;;;;;22.31;47.75;100072.41;108438;1281;21990;-68
2023/07/29 02:21:16;;;;;;;5.20;3.00;;;;;;;22.33;47.85;100072.10;108478;1278;21992;-69
2023/07/29 02:23:42;;;;;;;7.20;3.20;;;;;;;22.35;48.02;100077.88;108468;1277;21991;-61
2023/07/29 02:26:07;;;;;;;10.40;3.50;;;;;;;22.35;48.33;100075.55;108357;1278;21980;-60
2023/07/29 02:28:33;;;;;;;7.70;3.20;;;;;;;22.36;48.57;100079.04;108450;1278;22021;-68
2023/07/29 02:31:19;;;;;;;11.80;3.60;;;;;;;22.36;48.64;100079.92;108457;1281;22097;-70
2023/07/29 02:33:45;;;;;;;6.00;3.10;;;;;;;22.38;48.64;100078.88;108493;1281;21984;-68
2023/07/29 02:36:11;;;;;;;7.70;3.30;;;;;;;22.41;48.75;100078.69;108447;1279;21996;-60
2023/07/29 02:38:37;;;;;;;7.20;3.10;;;;;;;22.42;48.68;100076.63;108529;1277;21988;-68
2023/07/29 02:41:03;;;;;;;6.50;3.20;;;;;;;22.42;48.63;100078.98;108474;1281;22020;-62
2023/07/29 02:43:28;;;;;;;6.20;3.30;;;;;;;22.42;48.84;100079.73;108453;1278;21986;-68
2023/07/29 02:45:54;;;;;;;10.00;3.20;;;;;;;22.43;49.17;100081.45;108461;1275;21986;-60
2023/07/29 02:48:19;;;;;;;6.60;3.50;;;;;;;22.45;49.54;100083.13;108498;1282;21994;-68
2023/07/29 02:50:45;;;;;;;7.10;4.00;;;;;;;22.43;49.70;100083.94;108190;1277;21956;-68
2023/07/29 02:53:11;;;;;;;8.70;4.10;;;;;;;22.42;49.75;100080.61;108438;1277;21988;-60
2023/07/29 02:55:40;;;;;;;6.80;3.50;;;;;;;22.43;49.70;100081.80;108263;1281;22077;-68
2023/07/29 02:58:05;;;;;;;6.70;3.60;;;;;;;22.42;49.98;100083.46;108475;1277;21988;-60
2023/07/29 03:00:32;;;;;;;6.60;3.70;;;;;;;22.41;49.93;100082.63;108467;1277;21970;-68
2023/07/29 03:02:59;;;;;;;6.50;3.40;;;;;;;22.42;50.08;100084.35;108473;1277;21987;-60
2023/07/29 03:05:27;;;;;;;8.00;3.50;;;;;;;22.45;50.40;100088.34;108486;1277;21949;-67
2023/07/29 03:07:52;;;;;;;5.60;3.10;;;;;;;22.46;50.67;100088.80;108478;1277;21985;-67
2023/07/29 03:10:18;;;;;;;8.20;3.40;;;;;;;22.46;50.71;100091.11;108539;1280;22018;-60
2023/07/29 03:12:43;;;;;;;8.30;3.50;;;;;;;22.47;50.87;100086.77;108445;1277;22019;-68
2023/07/29 03:15:09;;;;;;;6.10;3.40;;;;;;;22.48;50.91;100084.15;108474;1278;21980;-60
2023/07/29 03:17:35;;;;;;;9.20;3.30;;;;;;;22.51;51.09;100083.80;108475;1281;21984;-59
2023/07/29 03:20:00;;;;;;;14.00;5.00;;;;;;;22.54;51.21;100082.70;108499;1277;21990;-68
2023/07/29 03:22:26;;;;;;;11.40;3.70;;;;;;;22.58;51.24;100080.48;108455;1281;21987;-60
2023/07/29 03:24:52;;;;;;;8.40;3.50;;;;;;;22.61;51.47;100076.84;108486;1281;21990;-60
2023/07/29 03:27:17;;;;;;;7.60;3.20;;;;;;;22.66;51.47;100079.75;108502;1278;21983;-60
2023/07/29 03:29:43;;;;;;;5.50;3.20;;;;;;;22.71;51.50;100084.42;108499;1280;21950;-60
2023/07/29 03:32:09;;;;;;;9.00;3.60;;;;;;;22.75;51.61;100087.91;108480;1282;21983;-68
2023/07/29 03:34:34;;;;;;;10.40;3.60;;;;;;;22.78;51.61;100090.92;108519;1278;21985;-60
2023/07/29 03:37:00;;;;;;;7.70;4.40;;;;;;;22.79;51.75;100093.54;107762;1282;1002628;-68
2023/07/29 03:39:26;;;;;;;5.20;3.50;;;;;;;22.79;51.65;100090.51;108497;1280;21984;-60
2023/07/29 03:41:52;;;;;;;5.30;3.40;;;;;;;22.81;52.05;100088.92;108509;1281;21986;-61
2023/07/29 03:44:18;;;;;;;8.00;4.00;;;;;;;22.87;52.38;100088.70;108440;1281;21999;-60
2023/07/29 03:46:44;;;;;;;9.20;3.30;;;;;;;22.94;52.38;100085.91;108420;1271;22092;-61
2023/07/29 03:49:10;;;;;;;6.60;3.20;;;;;;;23.01;52.46;100089.22;108589;1278;22039;-60
2023/07/29 03:51:36;;;;;;;5.70;2.90;;;;;;;23.05;52.31;100088.54;108499;1282;21985;-60
2023/07/29 03:54:02;;;;;;;6.80;3.40;;;;;;;23.09;52.21;100088.97;108467;1282;21985;-69
2023/07/29 03:56:27;;;;;;;4.80;3.00;;;;;;;23.13;52.15;100089.94;108517;1282;22027;-60
2023/07/29 03:58:53;;;;;;;6.80;3.50;;;;;;;23.19;52.33;100086.90;108467;1282;22013;-61
2023/07/29 04:01:19;;;;;;;6.00;3.10;;;;;;;23.26;52.39;100088.89;108506;1280;21988;-61
2023/07/29 04:03:46;;;;;;;10.40;3.50;;;;;;;23.35;53.15;100087.94;108478;1277;21990;-61
2023/07/29 04:06:12;;;;;;;6.70;3.00;;;;;;;23.45;53.39;100087.77;108457;1281;21984;-70
2023/07/29 04:08:37;;;;;;;6.10;3.20;;;;;;;23.55;53.36;100087.43;108497;1282;22071;-69
2023/07/29 04:11:03;;;;;;;5.70;2.60;;;;;;;23.66;53.37;100085.21;108485;1281;21981;-69
2023/07/29 04:13:29;;;;;;;6.80;3.00;;;;;;;23.78;53.48;100087.94;108541;1271;21984;-60
2023/07/29 04:15:54;;;;;;;8.70;2.80;;;;;;;23.89;53.97;100091.98;108467;1281;21999;-69
2023/07/29 04:18:20;;;;;;;4.30;2.90;;;;;;;24.00;54.34;100093.50;108466;1281;21985;-60
2023/07/29 04:20:45;;;;;;;5.60;3.00;;;;;;;24.13;53.94;100094.52;108480;1282;22006;-60
2023/07/29 04:23:11;;;;;;;5.00;2.60;;;;;;;24.26;53.98;100092.34;108473;1281;21997;-69
2023/07/29 04:25:36;;;;;;;6.30;2.30;;;;;;;24.37;53.90;100088.48;108455;1281;21995;-61
2023/07/29 04:28:03;;;;;;;5.30;2.50;;;;;;;24.48;53.51;100089.46;108461;1277;21994;-69
2023/07/29 04:30:29;;;;;;;5.40;2.60;;;;;;;24.59;53.72;100085.27;108494;1282;21992;-61
2023/07/29 04:32:54;;;;;;;5.50;3.20;;;;;;;24.71;53.59;100082.88;108490;1281;22020;-61
2023/07/29 04:35:20;;;;;;;8.10;3.10;;;;;;;24.85;53.75;100086.90;108458;1277;24118;-60
2023/07/29 04:37:47;;;;;;;5.60;3.00;;;;;;;24.97;53.47;100087.23;108472;1281;22223;-68
2023/07/29 04:40:13;;;;;;;3.80;2.60;;;;;;;25.11;53.12;100092.97;108552;1278;21996;-60
2023/07/29 04:42:39;;;;;;;4.60;2.70;;;;;;;25.24;53.16;100091.07;108774;1273;21982;-70
2023/07/29 04:45:06;;;;;;;5.10;2.30;;;;;;;25.38;53.03;100092.88;109189;1280;21985;-60
2023/07/29 04:47:32;;;;;;;6.20;2.70;;;;;;;25.51;53.13;100094.91;108426;1280;21994;-69
2023/07/29 04:49:59;;;;;;;4.80;2.80;;;;;;;25.64;53.02;100095.13;108474;1281;21986;-61
2023/07/29 04:52:24;;;;;;;5.80;2.90;;;;;;;25.79;52.66;100089.26;108541;1270;21985;-69
2023/07/29 04:54:50;;;;;;;4.80;2.60;;;;;;;25.92;52.22;100090.34;108487;1280;22772;-69
2023/07/29 04:57:16;;;;;;;4.50;2.70;;;;;;;26.05;51.83;100095.98;108370;1281;21994;-61
2023/07/29 04:59:41;;;;;;;6.70;2.30;;;;;;;26.18;51.85;100099.05;108356;1281;22021;-61
2023/07/29 05:02:07;;;;;;;5.10;2.40;;;;;;;26.33;51.66;100098.20;110453;1272;21954;-59
2023/07/29 05:04:32;;;;;;;6.60;3.00;;;;;;;26.50;51.60;100099.52;110487;1270;21918;-59
2023/07/29 05:06:58;;;;;;;6.60;2.70;;;;;;;26.67;51.46;100101.70;109827;1276;23114;-59
2023/07/29 05:09:23;;;;;;;5.70;2.40;;;;;;;26.82;50.80;100100.21;109066;1278;21955;-66
2023/07/29 05:11:49;;;;;;;5.00;2.70;;;;;;;26.98;50.42;100099.64;108461;1282;21994;-59
2023/07/29 05:14:15;;;;;;;5.00;2.20;;;;;;;27.14;50.25;100100.25;108507;1282;21991;-60
2023/07/29 05:16:41;;;;;;;4.40;2.30;;;;;;;27.29;50.03;100096.42;108454;1280;21986;-67
2023/07/29 05:19:07;;;;;;;4.40;2.50;;;;;;;27.42;49.54;100094.20;108487;1277;21984;-59
2023/07/29 05:21:32;;;;;;;4.10;2.60;;;;;;;27.53;48.99;100097.92;108429;1281;21976;-59
2023/07/29 05:23:58;;;;;;;4.10;2.50;;;;;;;27.67;48.99;100099.98;108523;1282;21973;-66
2023/07/29 05:26:24;;;;;;;4.80;2.40;;;;;;;27.82;48.68;100101.02;108484;1277;22039;-60
2023/07/29 05:28:49;;;;;;;3.60;2.10;;;;;;;27.94;48.14;100101.55;108441;1282;22077;-59
2023/07/29 05:31:15;;;;;;;3.70;2.10;;;;;;;28.10;47.92;100103.07;108488;1282;21998;-67
2023/07/29 05:33:40;;;;;;;6.00;3.20;;;;;;;28.26;47.10;100108.29;108446;1277;21994;-59
2023/07/29 05:36:06;;;;;;;4.60;3.00;;;;;;;28.38;47.20;100121.98;108477;1280;22450;-67
2023/07/29 05:38:31;;;;;;;5.70;2.90;;;;;;;28.57;47.06;100122.61;108485;1278;21988;-67
2023/07/29 05:40:57;;;;;;;10.80;4.40;;;;;;;28.77;46.86;100120.58;108519;1281;21990;-67
2023/07/29 05:43:26;;;;;;;9.10;3.80;;;;;;;28.94;46.14;100125.16;108485;1281;22021;-60
2023/07/29 05:45:52;;;;;;;4.20;2.70;;;;;;;29.08;45.72;100132.16;108503;1277;21984;-60
2023/07/29 05:48:19;;;;;;;4.30;2.30;;;;;;;29.26;45.31;100130.12;108465;1276;21981;-60
2023/07/29 05:50:45;;;;;;;4.30;2.60;;;;;;;29.46;44.65;100126.39;108508;1281;22044;-60
2023/07/29 05:53:10;;;;;;;4.30;2.40;;;;;;;29.61;44.49;100121.38;108479;1274;21999;-67
2023/07/29 05:55:36;;;;;;;6.30;3.80;;;;;;;29.76;44.50;100125.65;108484;1281;21991;-68
2023/07/29 05:58:01;;;;;;;5.70;3.20;;;;;;;29.89;43.97;100125.02;108497;1281;21985;-67
2023/07/29 06:00:27;;;;;;;4.20;2.60;;;;;;;30.01;43.33;100127.11;108469;1282;21978;-67
2023/07/29 06:02:52;;;;;;;10.00;2.50;;;;;;;30.15;42.82;100123.77;108437;1277;21976;-60
2023/07/29 06:05:18;;;;;;;3.60;2.30;;;;;;;30.20;42.34;100115.86;108443;1282;21991;-67
2023/07/29 06:07:44;;;;;;;5.20;2.60;;;;;;;30.35;42.51;100117.55;108489;1282;21986;-60
2023/07/29 06:10:12;;;;;;;4.40;2.60;;;;;;;30.60;42.29;100122.58;108448;1281;22003;-68
2023/07/29 06:12:38;;;;;;;4.30;2.30;;;;;;;30.82;41.35;100123.05;108456;1282;22021;-59
2023/07/29 06:15:05;;;;;;;3.50;2.10;;;;;;;30.99;41.20;100125.65;108445;1277;22021;-60
2023/07/29 06:17:30;;;;;;;3.70;2.20;;;;;;;31.16;41.48;100121.40;108444;1282;21984;-60
2023/07/29 06:19:56;;;;;;;3.50;2.00;;;;;;;31.33;41.29;100120.77;108477;1282;21983;-60
2023/07/29 06:22:22;;;;;;;4.70;2.30;;;;;;;31.45;40.92;100121.80;108429;1272;21983;-67
2023/07/29 06:24:47;;;;;;;6.90;2.60;;;;;;;31.55;40.60;100121.47;108477;1279;22019;-61
2023/07/29 06:27:13;;;;;;;7.30;2.70;;;;;;;31.63;40.22;100120.90;108223;1281;22016;-68
2023/07/29 06:29:38;;;;;;;4.60;2.90;;;;;;;31.79;40.29;100123.77;108456;1277;21986;-60
2023/07/29 06:32:04;;;;;;;4.60;2.70;;;;;;;31.92;39.95;100126.59;108482;1277;21985;-68
2023/07/29 06:34:30;;;;;;;3.40;1.90;;;;;;;32.09;39.77;100127.64;108487;1280;21993;-60
2023/07/29 06:36:56;;;;;;;3.60;2.10;;;;;;;32.29;38.74;100124.26;108438;1277;21977;-61
2023/07/29 06:39:21;;;;;;;4.50;2.70;;;;;;;32.47;38.70;100121.05;108498;1274;21989;-67
2023/07/29 06:41:47;;;;;;;4.00;1.90;;;;;;;32.51;37.73;100118.95;108452;1281;21991;-67
2023/07/29 06:44:12;;;;;;;5.00;1.90;;;;;;;32.55;37.49;100119.47;108448;1277;21945;-60
2023/07/29 06:46:38;;;;;;;4.40;2.20;;;;;;;32.67;37.65;100119.37;108452;1277;21983;-60
2023/07/29 06:49:05;;;;;;;4.00;1.80;;;;;;;32.80;37.85;100121.59;108245;1283;21988;-67
2023/07/29 06:51:34;;;;;;;3.20;1.70;;;;;;;32.91;37.66;100118.64;108403;1277;21994;-60
2023/07/29 06:53:59;;;;;;;2.90;1.90;;;;;;;33.09;37.52;100122.81;108456;1277;21991;-60
2023/07/29 06:56:25;;;;;;;3.10;1.80;;;;;;;33.23;37.40;100116.86;108444;1282;21988;-66
2023/07/29 06:58:51;;;;;;;6.60;2.00;;;;;;;33.27;36.83;100118.70;108482;1281;21992;-60
2023/07/29 07:01:17;;;;;;;3.40;2.10;;;;;;;33.22;36.47;100122.07;108464;1281;21984;-66
2023/07/29 07:03:42;;;;;;;2.10;1.70;;;;;;;33.24;36.42;100126.73;108473;1281;21988;-60
2023/07/29 07:06:08;;;;;;;3.40;2.10;;;;;;;33.26;35.94;100125.07;108460;1282;22011;-61
2023/07/29 07:08:33;;;;;;;4.50;2.80;;;;;;;33.35;36.35;100127.96;108475;1282;22020;-60
2023/07/29 07:10:59;;;;;;;7.50;3.70;;;;;;;33.60;36.24;100125.44;108495;1278;22024;-66
2023/07/29 07:13:25;;;;;;;5.80;2.50;;;;;;;33.89;35.58;100123.96;108452;1278;21983;-66
2023/07/29 07:15:50;;;;;;;4.90;2.50;;;;;;;34.16;35.48;100128.35;108471;1281;21985;-65
2023/07/29 07:18:16;;;;;;;6.10;2.40;;;;;;;34.38;35.36;100127.08;108485;1281;21983;-65
2023/07/29 07:20:41;;;;;;;5.20;2.80;;;;;;;34.60;35.22;100128.20;108438;1282;21986;-60
2023/07/29 07:23:11;;;;;;;2.90;2.00;;;;;;;34.76;35.04;100128.24;108447;1271;21989;-61
2023/07/29 07:25:36;;;;;;;3.90;1.90;;;;;;;34.85;34.02;100128.17;108492;1282;23719;-61
2023/07/29 07:28:02;;;;;;;6.20;2.00;;;;;;;34.82;34.10;100129.15;108491;1281;21986;-62
2023/07/29 07:30:28;;;;;;;3.40;2.40;;;;;;;35.00;34.44;100125.55;108484;1281;21984;-66
2023/07/29 07:32:53;;;;;;;3.00;1.90;;;;;;;35.20;33.86;100123.38;108475;1276;21986;-66
2023/07/29 07:35:19;;;;;;;4.20;2.10;;;;;;;35.22;33.58;100118.36;108480;1282;21986;-66
2023/07/29 07:37:45;;;;;;;4.90;2.00;;;;;;;35.34;33.66;100120.09;108462;1278;21992;-61
2023/07/29 07:40:11;;;;;;;5.10;1.80;;;;;;;35.57;33.63;100118.20;108440;1281;21991;-61
2023/07/29 07:42:36;;;;;;;4.20;1.70;;;;;;;35.76;33.22;100116.59;108440;1277;22002;-66
2023/07/29 07:45:02;;;;;;;4.80;1.70;;;;;;;35.83;33.01;100113.70;108474;1274;22212;-66
2023/07/29 07:47:28;;;;;;;6.20;1.90;;;;;;;35.98;32.88;100114.61;108432;1281;21986;-66
2023/07/29 07:49:54;;;;;;;3.20;1.90;;;;;;;36.23;33.15;100118.01;108502;1282;21985;-61
2023/07/29 07:52:19;;;;;;;5.90;2.20;;;;;;;36.59;33.28;100112.29;108472;1276;22004;-66
2023/07/29 07:54:45;;;;;;;3.20;1.80;;;;;;;37.03;32.96;100109.88;108521;1281;21986;-61
2023/07/29 07:57:10;;;;;;;3.60;1.90;;;;;;;37.37;32.90;100105.22;108460;1277;22031;-64
2023/07/29 07:59:36;;;;;;;3.50;1.60;;;;;;;37.64;32.40;100103.56;108228;1283;21988;-61
2023/07/29 08:02:02;;;;;;;5.80;2.30;;;;;;;37.63;31.79;100102.83;108414;1281;22448;-62
2023/07/29 08:04:27;;;;;;;4.00;1.80;;;;;;;37.70;31.61;100099.87;108482;1281;21983;-67
2023/07/29 08:06:53;;;;;;;4.50;1.90;;;;;;;37.79;31.23;100095.72;108494;1282;21993;-66
2023/07/29 08:09:18;;;;;;;3.30;1.90;;;;;;;37.90;30.70;100098.39;108445;1277;22024;-66
2023/07/29 08:11:44;;;;;;;5.90;2.30;;;;;;;38.06;30.52;100095.75;108471;1281;21999;-61
2023/07/29 08:14:10;;;;;;;5.80;2.70;;;;;;;38.18;30.82;100094.27;108451;1282;22007;-67
2023/07/29 08:16:35;;;;;;;4.10;2.10;;;;;;;38.08;29.98;100093.44;108460;1281;21988;-66
2023/07/29 08:19:01;;;;;;;3.90;2.30;;;;;;;38.01;30.23;100090.41;108227;1282;21994;-61
2023/07/29 08:21:27;;;;;;;4.00;2.20;;;;;;;38.13;30.26;100085.58;108470;1281;23067;-61
2023/07/29 08:23:52;;;;;;;3.70;2.60;;;;;;;38.26;29.80;100081.13;108506;1278;22328;-67
2023/07/29 08:26:18;;;;;;;8.20;2.90;;;;;;;38.31;28.91;100077.11;108472;1282;21986;-66
2023/07/29 08:28:43;;;;;;;5.40;2.80;;;;;;;38.38;28.79;100078.45;108445;1282;22001;-62
2023/07/29 08:31:09;;;;;;;4.10;2.20;;;;;;;38.35;27.33;100076.70;108208;1283;21984;-65
2023/07/29 08:33:35;;;;;;;4.20;2.20;;;;;;;38.33;27.95;100075.59;108455;1278;21980;-61
2023/07/29 08:36:01;;;;;;;4.00;2.20;;;;;;;38.31;28.04;100066.05;108437;1281;22000;-67
2023/07/29 08:38:27;;;;;;;5.90;2.40;;;;;;;38.40;28.62;100057.95;108423;1281;21984;-61
2023/07/29 08:41:06;;;;;;;3.80;1.80;;;;;;;38.49;28.34;100060.08;108447;1278;22026;-67
2023/07/29 08:43:32;;;;;;;2.90;1.90;;;;;;;38.67;28.81;100061.59;108271;1282;22010;-66
2023/07/29 08:45:58;;;;;;;5.70;2.40;;;;;;;38.89;28.03;100064.35;108230;1276;22042;-67
2023/07/29 08:48:29;;;;;;;5.60;2.70;;;;;;;38.91;28.53;100059.61;108428;1282;22011;-62
2023/07/29 08:50:55;;;;;;;6.80;3.90;;;;;;;38.77;28.02;100059.39;108419;1281;22016;-67
2023/07/29 08:53:20;;;;;;;4.30;2.60;;;;;;;38.62;28.45;100061.38;108231;1281;21991;-66
2023/07/29 08:55:46;;;;;;;3.40;2.00;;;;;;;38.74;28.53;100063.58;108217;1282;21966;-67
2023/07/29 08:58:11;;;;;;;6.80;1.60;;;;;;;38.80;27.93;100057.15;108125;1282;21995;-68
2023/07/29 09:00:37;;;;;;;4.30;2.40;;;;;;;38.65;27.70;100058.42;108171;1280;21986;-68
2023/07/29 09:03:06;;;;;;;3.70;1.60;;;;;;;38.50;27.76;100058.94;108138;1282;21987;-67
2023/07/29 09:05:33;;;;;;;2.70;1.70;;;;;;;38.40;27.36;100050.05;108150;1282;21983;-61
2023/07/29 09:07:59;;;;;;;5.10;1.80;;;;;;;38.50;28.13;100050.19;108488;1276;22205;-61
2023/07/29 09:10:25;;;;;;;6.00;2.20;;;;;;;38.78;28.22;100048.94;108118;1279;22024;-61
2023/07/29 09:12:51;;;;;;;3.80;1.80;;;;;;;39.07;28.26;100046.02;108380;1281;21984;-61
2023/07/29 09:15:30;;;;;;;6.90;1.90;;;;;;;39.27;27.45;100044.33;108168;1283;22447;-62
2023/07/29 09:17:57;;;;;;;2.40;1.60;;;;;;;39.28;27.19;100038.54;108488;1280;21994;-62
2023/07/29 09:20:26;;;;;;;2.80;1.60;;;;;;;39.52;27.53;100037.58;108372;1277;21988;-62
2023/07/29 09:22:54;;;;;;;3.00;1.80;;;;;;;39.79;26.91;100037.88;108478;1280;21994;-62
2023/07/29 09:25:27;;;;;;;4.50;1.40;;;;;;;40.00;27.05;100036.70;108499;1281;22039;-62
2023/07/29 09:27:53;;;;;;;3.20;1.50;;;;;;;40.23;26.52;100034.52;108450;1277;22097;-63
2023/07/29 09:30:18;;;;;;;6.00;1.80;;;;;;;40.47;27.24;100030.73;108226;1282;22019;-63
2023/07/29 09:32:44;;;;;;;2.40;1.60;;;;;;;40.73;27.43;100033.14;108453;1277;22027;-68
2023/07/29 09:35:11;;;;;;;2.60;1.60;;;;;;;41.04;26.72;100030.92;108468;1282;21985;-63
2023/07/29 09:37:38;;;;;;;2.80;1.50;;;;;;;41.23;26.29;100034.85;108511;1278;21998;-63
2023/07/29 09:40:05;;;;;;;3.00;1.60;;;;;;;41.24;26.37;100030.42;108438;1282;21986;-68
2023/07/29 09:42:31;;;;;;;3.50;1.40;;;;;;;41.22;25.55;100033.17;108530;1279;22437;-69
2023/07/29 09:44:57;;;;;;;3.00;1.50;;;;;;;40.93;24.47;100036.53;108278;1269;22114;-69
2023/07/29 09:47:24;;;;;;;4.10;1.40;;;;;;;40.44;25.06;100041.61;108458;1282;22017;-66
2023/07/29 09:49:50;;;;;;;2.80;1.70;;;;;;;40.17;25.82;100044.39;108444;1282;22251;-67
2023/07/29 09:52:17;;;;;;;2.60;1.30;;;;;;;40.14;26.27;100040.66;108411;1280;21991;-67
2023/07/29 09:54:44;;;;;;;5.10;1.70;;;;;;;40.14;24.82;100036.18;108414;1282;21988;-67
2023/07/29 09:57:12;;;;;;;2.20;1.50;;;;;;;40.06;25.27;100042.27;108506;1282;22022;-67
2023/07/29 09:59:37;;;;;;;1.90;1.50;;;;;;;39.90;24.70;100039.51;108530;1277;22057;-68
2023/07/29 10:02:04;;;;;;;2.00;1.20;;;;;;;39.45;25.09;100039.50;108418;1278;21988;-68
2023/07/29 10:04:29;;;;;;;2.70;1.70;;;;;;;38.98;25.41;100041.52;108376;1282;21983;-63
2023/07/29 10:06:55;;;;;;;2.70;1.50;;;;;;;38.49;25.40;100046.15;108378;1281;22006;-62
2023/07/29 10:09:20;;;;;;;3.40;1.70;;;;;;;38.12;26.02;100047.88;108395;1281;21988;-62
2023/07/29 10:11:46;;;;;;;1.80;1.30;;;;;;;38.09;26.30;100044.29;108178;1282;22023;-68
2023/07/29 10:14:12;;;;;;;2.90;1.40;;;;;;;38.26;26.20;100037.46;108231;1281;21993;-68
2023/07/29 10:16:37;;;;;;;2.80;1.60;;;;;;;38.48;26.24;100040.02;108448;1282;22157;-62
2023/07/29 10:19:04;;;;;;;3.00;1.70;;;;;;;38.61;26.25;100044.13;108206;1283;22215;-63
2023/07/29 10:21:30;;;;;;;4.90;1.80;;;;;;;38.88;26.27;100043.14;108452;1281;22102;-62
2023/07/29 10:23:56;;;;;;;4.20;1.90;;;;;;;39.20;25.80;100040.75;108394;1281;21986;-68
2023/07/29 10:26:21;;;;;;;3.50;1.70;;;;;;;39.61;25.40;100037.11;108151;1281;21999;-69
2023/07/29 10:28:48;;;;;;;3.30;1.60;;;;;;;39.88;25.48;100036.91;108389;1282;21998;-63
2023/07/29 10:31:15;;;;;;;2.20;1.20;;;;;;;39.77;24.72;100035.80;108412;1281;22869;-68
2023/07/29 10:33:42;;;;;;;7.50;1.50;;;;;;;39.61;24.73;100037.02;108672;1281;21978;-68
2023/07/29 10:36:07;;;;;;;4.30;1.80;;;;;;;39.54;25.04;100032.48;108216;1282;22558;-63
2023/07/29 10:38:33;;;;;;;2.50;1.50;;;;;;;39.70;25.52;100034.48;108355;1281;22089;-68
2023/07/29 10:41:00;;;;;;;5.70;1.50;;;;;;;40.13;25.85;100030.25;108263;1281;22024;-69
2023/07/29 10:43:27;;;;;;;3.10;1.30;;;;;;;40.72;25.46;100025.17;108433;1269;21986;-69
2023/07/29 10:45:55;;;;;;;2.20;1.40;;;;;;;41.22;25.50;100023.35;108451;1279;21994;-64
2023/07/29 10:48:33;;;;;;;3.80;1.60;;;;;;;41.65;25.69;100022.48;108442;1281;21989;-63
2023/07/29 10:51:27;;;;;;;2.80;1.60;;;;;;;42.07;25.60;100023.89;108426;1282;22032;-64
2023/07/29 10:53:54;;;;;;;2.60;1.60;;;;;;;42.33;24.39;100029.42;108422;1282;21994;-63
2023/07/29 10:56:30;;;;;;;1.80;1.20;;;;;;;42.13;23.41;100029.52;108589;1281;22013;-63
2023/07/29 10:58:57;;;;;;;2.50;1.60;;;;;;;41.78;23.82;100034.27;108369;1276;21983;-68
2023/07/29 11:01:32;;;;;;;2.70;1.60;;;;;;;41.68;23.59;100035.38;108559;1282;21988;-64
2023/07/29 11:04:24;;;;;;;2.80;1.70;;;;;;;41.57;23.62;100033.42;108575;1281;22065;-64
2023/07/29 11:07:09;;;;;;;3.90;1.50;;;;;;;41.41;23.97;100032.29;108453;1281;21993;-64
2023/07/29 11:09:48;;;;;;;2.90;1.80;;;;;;;41.21;23.76;100024.98;108365;1282;21988;-63
2023/07/29 11:12:39;;;;;;;1.80;1.40;;;;;;;41.03;24.42;100021.22;108342;1282;22065;-63
2023/07/29 11:15:18;;;;;;;2.30;1.70;;;;;;;40.89;24.34;100021.84;108350;1281;21988;-64